Aérodrome :
LOGIN :

S'inscrire | Disclaimer

   EN    FR    IT 

 










Légende :    VFR   VFR Marginal   IFR   IFR Intensif   IFR Très Intensif
Visi : 
Plafond : 
>= 8 km
>= 3000ft
5 à 8 km
1000 à 3000 ft
1500m à 5 km
500 à 1000 ft
800 à 1500m
200 à 500 ft
< 800m
< 200 ft
Symboles :   Orages  Brouillard  Fortes neiges  Fortes précipitations  Vent > 20 kt
SIGMETs :   Divers  Orages  Givrage  Turbulence  Onde Orograph.  Cendres Volcan.






- Altitude de l'aérodrome : 230 ft
- Code IATA : VAR


LBWN - Varna

DERNIER METAR :
  • 192330Z 07003KT 5000 BR BKN015 06/06 Q1016 NOSIG

METARs EXPIRÉS :
  • 192300Z 10003KT 4600 BR FEW005 SCT045 06/06 Q1016 NOSIG
  • 192230Z 00000KT 4300 -RA BR FEW005 SCT045 06/06 Q1016 TEMPO 3000 RA BR
  • 192200Z 28001KT 6000 -RA SCT045 06/06 Q1017 NOSIG
  • 192130Z VRB01KT 6000 SCT045 06/06 Q1017 TEMPO 5000 RA
  • 192100Z 09004KT 7000 SCT045 07/06 Q1017 NOSIG

TAF TAF LBWN
Valide du 20 à 00h jusqu'au 21 à 00h UTC


192300Z 2000/2024 VRB04KT 7000 BKN045
TEMPO 2000/2006 3000 RA BR SCT030 BKN040
TEMPO 2006/2016 5000 RA BKN015 OVC030
BECMG 2017/2019 01014KT



MET'MAP, la Météo Aéronautique d'un coup d'oeil ! - Copyright ORBIFLY Décembre 2007 - Disclaimer

ORBIFLY MET'MAP TEAM :

Programmation & Développement : Alexandra Zaïnal
Sur une idée originale de : Baudouin d'Aumeries
Assistance à la programmation : Marc-Olivier Méhu
Soutien technique & logistique : Manuel Goepfert

Contact : metmap@orbifly.com




SOURCES & CREDITS :

   NOAA